Time;durP1;ratioP1;P1;durP2;ratioP2;P2;SDS_P1;SDS_P2;PMS_P1;PMS_P2;Temp;Humidity;BMP_temperature;BMP_pressure;BME280_temperature;BME280_humidity;BME280_pressure;Samples;Min_cycle;Max_cycle;Signal;HPM_P1;HPM_P2
2021/06/06 00:01:21;;;;;;;2.07;1.87;;;;;;;;;;5140418;27;20234;-65
2021/06/06 00:03:50;;;;;;;2.83;1.37;;;;;;;;;;5139986;27;20196;-65
2021/06/06 00:06:20;;;;;;;3.63;2.97;;;;;;;;;;5140143;27;20283;-65
2021/06/06 00:08:48;;;;;;;3.20;1.53;;;;;;;;;;5140518;27;20208;-65
2021/06/06 00:11:17;;;;;;;2.20;1.50;;;;;;;;;;5140059;27;20228;-65
2021/06/06 00:13:45;;;;;;;1.87;1.77;;;;;;;;;;5132396;27;20207;-65
2021/06/06 00:16:14;;;;;;;3.07;1.30;;;;;;;;;;5140436;27;20204;-65
2021/06/06 00:18:41;;;;;;;4.27;1.90;;;;;;;;;;5140286;27;20287;-65
2021/06/06 00:21:09;;;;;;;3.13;1.50;;;;;;;;;;5139663;27;20208;-65
2021/06/06 00:23:38;;;;;;;2.97;1.60;;;;;;;;;;5139727;27;20714;-65
2021/06/06 00:26:07;;;;;;;4.80;1.50;;;;;;;;;;5139513;27;20227;-65
2021/06/06 00:28:34;;;;;;;1.50;1.40;;;;;;;;;;5139440;27;20204;-65
2021/06/06 00:31:02;;;;;;;2.00;1.67;;;;;;;;;;5139156;27;20214;-65
2021/06/06 00:33:30;;;;;;;1.70;1.60;;;;;;;;;;5139045;27;20211;-65
2021/06/06 00:35:58;;;;;;;1.40;1.40;;;;;;;;;;5138847;27;20200;-65
2021/06/06 00:38:25;;;;;;;2.20;1.57;;;;;;;;;;5138751;27;20214;-65
2021/06/06 00:40:56;;;;;;;2.70;1.67;;;;;;;;;;5139049;27;20204;-65
2021/06/06 00:43:24;;;;;;;1.80;1.57;;;;;;;;;;5139144;27;20216;-65
2021/06/06 00:45:51;;;;;;;2.07;1.57;;;;;;;;;;5139681;27;20208;-66
2021/06/06 00:48:19;;;;;;;3.10;1.67;;;;;;;;;;5139006;27;20238;-66
2021/06/06 00:50:48;;;;;;;2.97;2.20;;;;;;;;;;5139093;27;20200;-65
2021/06/06 00:53:20;;;;;;;3.03;1.80;;;;;;;;;;5139190;27;20295;-65
2021/06/06 00:55:49;;;;;;;4.83;1.73;;;;;;;;;;5139735;27;20203;-65
2021/06/06 00:58:19;;;;;;;2.57;1.43;;;;;;;;;;5139550;27;20210;-65
2021/06/06 01:00:48;;;;;;;3.00;1.60;;;;;;;;;;5139847;27;20290;-65
2021/06/06 01:03:16;;;;;;;3.07;1.60;;;;;;;;;;5139237;27;20235;-65
2021/06/06 01:05:45;;;;;;;2.77;1.77;;;;;;;;;;5138882;27;20212;-65
2021/06/06 01:08:14;;;;;;;2.03;1.93;;;;;;;;;;5138948;27;20204;-65
2021/06/06 01:10:42;;;;;;;1.93;1.30;;;;;;;;;;5138752;27;20600;-65
2021/06/06 01:13:18;;;;;;;1.67;1.57;;;;;;;;;;5131190;27;20219;-66
2021/06/06 01:15:50;;;;;;;1.80;1.70;;;;;;;;;;5138780;27;20211;-65
2021/06/06 01:18:23;;;;;;;1.70;1.60;;;;;;;;;;5138788;27;20208;-65
2021/06/06 01:20:55;;;;;;;3.00;1.60;;;;;;;;;;5138649;27;20215;-66
2021/06/06 01:23:30;;;;;;;1.87;1.60;;;;;;;;;;5138533;27;20228;-65
2021/06/06 01:26:01;;;;;;;2.37;1.67;;;;;;;;;;5138440;27;20199;-65
2021/06/06 01:28:31;;;;;;;7.00;1.70;;;;;;;;;;5138531;27;20208;-65
2021/06/06 01:31:00;;;;;;;1.97;1.50;;;;;;;;;;5124829;27;20706;-65
2021/06/06 01:33:29;;;;;;;1.80;1.70;;;;;;;;;;5138405;27;20257;-66
2021/06/06 01:35:58;;;;;;;2.53;1.43;;;;;;;;;;5138904;27;20203;-67
2021/06/06 01:38:28;;;;;;;1.50;1.40;;;;;;;;;;5138503;27;20210;-65
2021/06/06 01:40:57;;;;;;;1.40;1.30;;;;;;;;;;5137950;27;20208;-65
2021/06/06 01:43:29;;;;;;;2.40;1.70;;;;;;;;;;5138043;27;20299;-65
2021/06/06 01:45:59;;;;;;;1.57;1.30;;;;;;;;;;5138502;28;20279;-65
2021/06/06 01:48:26;;;;;;;1.50;1.40;;;;;;;;;;5137753;28;20208;-65
2021/06/06 01:50:56;;;;;;;2.00;1.57;;;;;;;;;;5137970;28;20204;-66
2021/06/06 01:53:24;;;;;;;1.70;1.60;;;;;;;;;;5138087;28;20196;-65
2021/06/06 01:55:54;;;;;;;2.60;1.70;;;;;;;;;;5137907;28;20704;-65
2021/06/06 01:58:22;;;;;;;1.67;1.50;;;;;;;;;;5137955;28;20215;-65
2021/06/06 02:00:52;;;;;;;1.80;1.70;;;;;;;;;;5138362;28;20219;-65
2021/06/06 02:03:20;;;;;;;2.70;1.90;;;;;;;;;;5140039;27;20224;-65
2021/06/06 02:05:48;;;;;;;2.13;1.90;;;;;;;;;;5141899;27;20208;-65
2021/06/06 02:08:17;;;;;;;3.13;1.83;;;;;;;;;;5142515;27;20305;-65
2021/06/06 02:10:46;;;;;;;2.10;1.63;;;;;;;;;;5142421;27;20671;-65
2021/06/06 02:13:18;;;;;;;1.80;1.70;;;;;;;;;;5133508;27;20715;-65
2021/06/06 02:15:46;;;;;;;3.47;1.80;;;;;;;;;;5142760;27;20211;-65
2021/06/06 02:18:15;;;;;;;3.33;2.03;;;;;;;;;;5142790;27;20204;-65
2021/06/06 02:20:43;;;;;;;1.73;1.63;;;;;;;;;;5142174;27;20200;-65
2021/06/06 02:23:12;;;;;;;2.77;1.80;;;;;;;;;;5142628;27;20234;-65
2021/06/06 02:25:40;;;;;;;1.80;1.70;;;;;;;;;;5142376;27;20204;-65
2021/06/06 02:28:10;;;;;;;3.70;1.97;;;;;;;;;;5143199;27;20211;-65
2021/06/06 02:30:43;;;;;;;1.77;1.57;;;;;;;;;;5142776;27;20720;-65
2021/06/06 02:33:15;;;;;;;3.67;1.50;;;;;;;;;;5142419;27;20255;-65
2021/06/06 02:35:46;;;;;;;2.13;1.87;;;;;;;;;;5142264;27;20218;-65
2021/06/06 02:38:15;;;;;;;3.23;1.73;;;;;;;;;;5142347;27;20220;-65
2021/06/06 02:40:45;;;;;;;2.43;1.83;;;;;;;;;;5142262;27;20204;-65
2021/06/06 02:43:14;;;;;;;2.47;1.73;;;;;;;;;;5141962;27;20281;-65
2021/06/06 02:45:43;;;;;;;2.10;1.90;;;;;;;;;;5142033;27;20210;-65
2021/06/06 02:48:15;;;;;;;2.33;1.73;;;;;;;;;;5142169;27;20208;-65
2021/06/06 02:50:45;;;;;;;2.03;1.87;;;;;;;;;;5141666;27;20246;-65
2021/06/06 02:53:16;;;;;;;4.40;2.13;;;;;;;;;;5141546;27;20746;-65
2021/06/06 02:55:46;;;;;;;2.40;2.20;;;;;;;;;;5141394;27;20566;-65
2021/06/06 02:58:16;;;;;;;2.10;2.00;;;;;;;;;;5141533;27;20287;-65
2021/06/06 03:00:46;;;;;;;3.07;2.07;;;;;;;;;;5141329;27;20672;-65
2021/06/06 03:03:16;;;;;;;3.17;1.60;;;;;;;;;;5141025;27;20591;-65
2021/06/06 03:05:46;;;;;;;2.60;2.00;;;;;;;;;;5141204;27;20215;-65
2021/06/06 03:08:14;;;;;;;1.57;1.40;;;;;;;;;;5141378;27;20200;-65
2021/06/06 03:10:42;;;;;;;1.87;1.77;;;;;;;;;;5141478;27;20204;-65
2021/06/06 03:13:13;;;;;;;2.70;1.80;;;;;;;;;;5133408;27;20222;-66
2021/06/06 03:15:42;;;;;;;1.90;1.80;;;;;;;;;;5140498;27;20208;-66
2021/06/06 03:18:10;;;;;;;2.43;2.07;;;;;;;;;;5141416;27;20204;-65
2021/06/06 03:20:38;;;;;;;3.37;2.20;;;;;;;;;;5141507;27;20215;-66
2021/06/06 03:23:08;;;;;;;1.83;1.73;;;;;;;;;;5141188;27;20621;-66
2021/06/06 03:25:39;;;;;;;2.57;2.37;;;;;;;;;;5141058;27;20216;-65
2021/06/06 03:28:08;;;;;;;2.30;2.10;;;;;;;;;;5140818;27;20563;-66
2021/06/06 03:30:39;;;;;;;4.00;2.10;;;;;;;;;;5140526;27;20238;-65
2021/06/06 03:33:08;;;;;;;1.83;1.73;;;;;;;;;;5141211;27;20241;-65
2021/06/06 03:35:36;;;;;;;1.70;1.60;;;;;;;;;;5140878;27;20210;-65
2021/06/06 03:38:04;;;;;;;2.17;1.90;;;;;;;;;;5141129;27;20568;-65
2021/06/06 03:40:35;;;;;;;9.47;2.30;;;;;;;;;;5140846;27;20204;-65
2021/06/06 03:43:03;;;;;;;5.40;2.40;;;;;;;;;;5141035;27;20224;-65
2021/06/06 03:45:30;;;;;;;2.13;2.00;;;;;;;;;;5140796;27;20207;-65
2021/06/06 03:47:58;;;;;;;3.43;2.20;;;;;;;;;;5140835;27;20200;-65
2021/06/06 03:50:28;;;;;;;2.30;1.97;;;;;;;;;;5140331;27;20295;-66
2021/06/06 03:52:56;;;;;;;4.40;1.77;;;;;;;;;;5140852;27;20232;-65
2021/06/06 03:55:23;;;;;;;2.33;1.97;;;;;;;;;;5140648;27;20200;-66
2021/06/06 03:57:53;;;;;;;2.73;2.20;;;;;;;;;;5140224;27;20267;-66
2021/06/06 04:00:24;;;;;;;2.83;2.53;;;;;;;;;;5131841;27;20196;-66
2021/06/06 04:02:52;;;;;;;3.03;2.30;;;;;;;;;;5136273;27;20234;-66
2021/06/06 04:05:20;;;;;;;2.80;2.50;;;;;;;;;;5139832;27;20196;-66
2021/06/06 04:07:48;;;;;;;2.30;2.07;;;;;;;;;;5132774;27;20200;-65
2021/06/06 04:10:15;;;;;;;2.60;2.40;;;;;;;;;;5133896;27;20279;-66
2021/06/06 04:12:43;;;;;;;2.60;2.40;;;;;;;;;;5135628;27;20220;-65
2021/06/06 04:15:13;;;;;;;3.17;2.80;;;;;;;;;;5136619;27;20258;-66
2021/06/06 04:17:40;;;;;;;2.40;2.20;;;;;;;;;;5138541;27;20583;-65
2021/06/06 04:20:08;;;;;;;2.63;2.23;;;;;;;;;;5138087;27;20279;-65
2021/06/06 04:22:36;;;;;;;3.80;2.63;;;;;;;;;;5136713;27;20220;-65
2021/06/06 04:25:04;;;;;;;5.23;2.53;;;;;;;;;;5133884;27;20220;-65
2021/06/06 04:27:31;;;;;;;4.00;2.37;;;;;;;;;;5134168;27;20228;-65
2021/06/06 04:29:59;;;;;;;3.37;2.47;;;;;;;;;;5129728;27;20590;-66
2021/06/06 04:32:28;;;;;;;3.77;2.30;;;;;;;;;;5132402;27;20224;-66
2021/06/06 04:34:55;;;;;;;2.90;2.43;;;;;;;;;;5129812;27;20529;-66
2021/06/06 04:37:23;;;;;;;2.60;2.07;;;;;;;;;;5133643;27;20197;-66
2021/06/06 04:39:50;;;;;;;2.33;2.13;;;;;;;;;;5132002;27;20651;-65
2021/06/06 04:42:20;;;;;;;6.03;2.63;;;;;;;;;;5134270;27;20573;-66
2021/06/06 04:44:48;;;;;;;6.93;2.57;;;;;;;;;;5130197;27;20220;-66
2021/06/06 04:47:16;;;;;;;2.97;2.50;;;;;;;;;;5130614;27;20279;-66
2021/06/06 04:49:45;;;;;;;3.27;3.07;;;;;;;;;;5131026;27;20287;-65
2021/06/06 04:52:14;;;;;;;2.97;2.50;;;;;;;;;;5134350;27;20682;-65
2021/06/06 04:54:41;;;;;;;3.00;2.60;;;;;;;;;;5135296;27;20199;-65
2021/06/06 04:57:09;;;;;;;3.23;2.67;;;;;;;;;;5138854;27;20203;-65
2021/06/06 04:59:37;;;;;;;2.60;2.40;;;;;;;;;;5134741;27;20608;-65
2021/06/06 05:02:06;;;;;;;3.77;2.80;;;;;;;;;;5130479;27;20213;-65
2021/06/06 05:04:33;;;;;;;3.93;2.60;;;;;;;;;;5130805;27;20231;-65
2021/06/06 05:07:03;;;;;;;4.23;2.40;;;;;;;;;;5134119;27;20223;-65
2021/06/06 05:09:30;;;;;;;3.10;2.60;;;;;;;;;;5130910;27;20204;-65
2021/06/06 05:11:58;;;;;;;2.63;2.43;;;;;;;;;;5132796;27;20217;-64
2021/06/06 05:14:25;;;;;;;2.67;2.40;;;;;;;;;;5132500;27;20558;-64
2021/06/06 05:16:53;;;;;;;3.40;2.53;;;;;;;;;;5132702;27;20200;-65
2021/06/06 05:19:20;;;;;;;3.53;3.07;;;;;;;;;;5133966;27;20248;-63
2021/06/06 05:21:48;;;;;;;2.93;2.63;;;;;;;;;;5131633;27;20308;-65
2021/06/06 05:24:17;;;;;;;3.00;2.70;;;;;;;;;;5133931;27;20226;-64
2021/06/06 05:26:45;;;;;;;4.03;3.10;;;;;;;;;;5130479;27;20237;-64
2021/06/06 05:29:12;;;;;;;3.37;2.67;;;;;;;;;;5131405;27;20230;-65
2021/06/06 05:31:40;;;;;;;6.20;3.07;;;;;;;;;;5127681;27;20212;-65
2021/06/06 05:34:07;;;;;;;3.87;2.83;;;;;;;;;;5136576;27;20228;-64
2021/06/06 05:36:36;;;;;;;3.20;2.63;;;;;;;;;;5137785;27;20256;-65
2021/06/06 05:39:04;;;;;;;3.67;2.60;;;;;;;;;;5137863;27;20200;-65
2021/06/06 05:41:33;;;;;;;3.00;2.80;;;;;;;;;;5138260;28;20219;-65
2021/06/06 05:44:00;;;;;;;3.20;2.90;;;;;;;;;;5138518;27;20216;-64
2021/06/06 05:46:28;;;;;;;3.60;3.13;;;;;;;;;;5138549;28;20207;-64
2021/06/06 05:48:56;;;;;;;3.20;2.90;;;;;;;;;;5119321;28;20204;-63
2021/06/06 05:51:23;;;;;;;3.53;2.87;;;;;;;;;;5131800;28;20232;-65
2021/06/06 05:53:51;;;;;;;5.00;3.00;;;;;;;;;;5138668;28;20192;-65
2021/06/06 05:56:19;;;;;;;4.07;3.10;;;;;;;;;;5138817;28;20200;-64
2021/06/06 05:58:48;;;;;;;3.90;3.07;;;;;;;;;;5138666;28;20211;-64
2021/06/06 06:01:18;;;;;;;3.33;3.03;;;;;;;;;;5134872;28;20216;-63
2021/06/06 06:03:46;;;;;;;3.67;3.37;;;;;;;;;;5137946;28;20259;-63
2021/06/06 06:06:13;;;;;;;3.40;2.77;;;;;;;;;;5127277;28;20198;-63
2021/06/06 06:08:42;;;;;;;3.20;2.90;;;;;;;;;;5137501;28;20203;-64
2021/06/06 06:11:12;;;;;;;3.60;3.30;;;;;;;;;;5137602;28;20204;-63
2021/06/06 06:13:41;;;;;;;3.30;3.03;;;;;;;;;;5127442;28;20236;-64
2021/06/06 06:16:12;;;;;;;3.30;3.00;;;;;;;;;;5137679;28;20200;-64
2021/06/06 06:18:40;;;;;;;3.73;3.37;;;;;;;;;;5137642;28;20200;-62
2021/06/06 06:21:11;;;;;;;3.47;3.17;;;;;;;;;;5137266;28;20238;-63
2021/06/06 06:23:38;;;;;;;3.40;2.47;;;;;;;;;;5137969;28;20204;-64
2021/06/06 06:26:06;;;;;;;3.53;3.20;;;;;;;;;;5137783;28;20204;-63
2021/06/06 06:28:34;;;;;;;3.43;2.97;;;;;;;;;;5137772;28;20219;-64
2021/06/06 06:31:01;;;;;;;3.77;3.43;;;;;;;;;;5137022;28;20232;-64
2021/06/06 06:33:31;;;;;;;5.33;3.00;;;;;;;;;;5137278;28;20663;-65
2021/06/06 06:35:59;;;;;;;3.17;2.87;;;;;;;;;;5136837;28;20196;-64
2021/06/06 06:38:27;;;;;;;3.17;2.90;;;;;;;;;;5137379;28;20206;-64
2021/06/06 06:40:55;;;;;;;3.00;2.80;;;;;;;;;;5137301;28;20283;-64
2021/06/06 06:43:23;;;;;;;3.37;2.90;;;;;;;;;;5136853;28;20204;-64
2021/06/06 06:45:50;;;;;;;3.90;2.77;;;;;;;;;;5137500;28;20227;-64
2021/06/06 06:48:19;;;;;;;2.73;2.53;;;;;;;;;;5133865;28;20238;-64
2021/06/06 06:50:49;;;;;;;4.00;2.60;;;;;;;;;;5139526;27;20287;-64
2021/06/06 06:53:17;;;;;;;3.20;2.50;;;;;;;;;;5141248;27;20315;-64
2021/06/06 06:55:44;;;;;;;3.57;3.27;;;;;;;;;;5141445;27;20558;-65
2021/06/06 06:58:12;;;;;;;10.63;3.10;;;;;;;;;;5140883;27;20203;-64
2021/06/06 07:00:41;;;;;;;4.30;3.23;;;;;;;;;;5140850;27;20208;-64
2021/06/06 07:03:09;;;;;;;3.40;2.80;;;;;;;;;;5141082;27;20228;-64
2021/06/06 07:05:37;;;;;;;3.70;3.00;;;;;;;;;;5140848;27;20702;-64
2021/06/06 07:08:06;;;;;;;3.03;2.83;;;;;;;;;;5141053;27;20210;-64
2021/06/06 07:10:35;;;;;;;3.10;2.90;;;;;;;;;;5140894;27;20208;-64
2021/06/06 07:13:02;;;;;;;3.83;3.10;;;;;;;;;;5125279;27;20659;-64
2021/06/06 07:15:30;;;;;;;3.43;2.90;;;;;;;;;;5139197;27;20563;-64
2021/06/06 07:17:58;;;;;;;3.57;3.10;;;;;;;;;;5140001;27;20212;-63
2021/06/06 07:20:27;;;;;;;2.97;2.73;;;;;;;;;;5139971;27;20196;-64
2021/06/06 07:22:55;;;;;;;5.17;3.77;;;;;;;;;;5139729;27;20706;-64
2021/06/06 07:25:24;;;;;;;6.00;3.10;;;;;;;;;;5139895;27;20220;-64
2021/06/06 07:27:52;;;;;;;3.50;3.20;;;;;;;;;;5139296;27;20206;-64
2021/06/06 07:30:22;;;;;;;3.03;2.73;;;;;;;;;;5132804;27;20232;-64
2021/06/06 07:32:50;;;;;;;3.83;3.37;;;;;;;;;;5134394;27;20221;-64
2021/06/06 07:35:19;;;;;;;3.40;3.10;;;;;;;;;;5133774;27;20200;-64
2021/06/06 07:37:46;;;;;;;5.10;4.60;;;;;;;;;;5139545;27;20207;-64
2021/06/06 07:40:16;;;;;;;4.07;3.67;;;;;;;;;;5138977;27;20228;-64
2021/06/06 07:42:44;;;;;;;3.43;3.10;;;;;;;;;;5137169;27;20699;-63
2021/06/06 07:45:13;;;;;;;3.57;3.03;;;;;;;;;;5138244;27;20234;-65
2021/06/06 07:47:42;;;;;;;4.97;3.30;;;;;;;;;;5139889;27;20210;-65
2021/06/06 07:50:11;;;;;;;4.37;3.03;;;;;;;;;;5139519;27;20285;-63
2021/06/06 07:52:39;;;;;;;3.50;2.80;;;;;;;;;;5139875;27;20417;-65
2021/06/06 07:55:07;;;;;;;2.97;2.67;;;;;;;;;;5140114;27;20202;-63
2021/06/06 07:57:34;;;;;;;4.87;2.70;;;;;;;;;;5140422;27;20271;-63
2021/06/06 08:00:04;;;;;;;2.67;2.47;;;;;;;;;;5139712;27;20605;-63
2021/06/06 08:02:32;;;;;;;2.83;2.63;;;;;;;;;;5139801;27;20311;-63
2021/06/06 08:04:59;;;;;;;3.40;2.67;;;;;;;;;;5125753;27;20223;-65
2021/06/06 08:07:28;;;;;;;2.57;2.43;;;;;;;;;;5139817;27;20206;-64
2021/06/06 08:09:56;;;;;;;2.60;2.40;;;;;;;;;;5132324;27;20205;-65
2021/06/06 08:12:26;;;;;;;2.97;2.43;;;;;;;;;;5126462;27;20238;-64
2021/06/06 08:14:53;;;;;;;2.87;2.67;;;;;;;;;;5139974;27;20205;-63
2021/06/06 08:17:22;;;;;;;3.20;2.90;;;;;;;;;;5139827;27;20204;-65
2021/06/06 08:19:49;;;;;;;3.53;2.60;;;;;;;;;;5138989;27;20730;-63
2021/06/06 08:22:17;;;;;;;2.53;2.10;;;;;;;;;;5138697;27;20771;-65
2021/06/06 08:24:45;;;;;;;4.33;2.50;;;;;;;;;;5135086;27;20218;-65
2021/06/06 08:27:12;;;;;;;3.23;2.40;;;;;;;;;;5137757;27;20568;-64
2021/06/06 08:29:41;;;;;;;2.50;2.30;;;;;;;;;;5135433;27;20235;-65
2021/06/06 08:32:09;;;;;;;2.53;2.33;;;;;;;;;;5134660;27;20691;-65
2021/06/06 08:34:38;;;;;;;2.67;2.20;;;;;;;;;;5136374;27;20299;-65
2021/06/06 08:37:06;;;;;;;3.03;2.27;;;;;;;;;;5139063;27;20239;-65
2021/06/06 08:39:35;;;;;;;2.23;2.03;;;;;;;;;;5137898;27;20208;-63
2021/06/06 08:42:06;;;;;;;3.07;2.07;;;;;;;;;;5135545;27;20226;-65
2021/06/06 08:44:35;;;;;;;2.20;2.10;;;;;;;;;;5134269;27;20200;-66
2021/06/06 08:47:04;;;;;;;1.90;1.80;;;;;;;;;;5130863;27;20663;-64
2021/06/06 08:49:33;;;;;;;3.33;2.20;;;;;;;;;;5129525;27;20200;-65
2021/06/06 08:52:10;;;;;;;3.17;2.17;;;;;;;;;;5130065;27;20572;-63
2021/06/06 08:54:42;;;;;;;6.87;3.83;;;;;;;;;;5131522;27;20572;-64
2021/06/06 08:57:15;;;;;;;4.47;2.10;;;;;;;;;;5138348;27;20365;-65
2021/06/06 08:59:46;;;;;;;2.30;2.10;;;;;;;;;;5138132;27;20690;-64
2021/06/06 09:02:17;;;;;;;2.70;1.97;;;;;;;;;;5136510;27;20211;-64
2021/06/06 09:04:45;;;;;;;3.30;1.70;;;;;;;;;;5136585;27;20673;-66
2021/06/06 09:07:17;;;;;;;1.93;1.73;;;;;;;;;;5137306;27;20192;-66
2021/06/06 09:09:46;;;;;;;1.83;1.70;;;;;;;;;;5132105;27;20231;-65
2021/06/06 09:12:17;;;;;;;1.93;1.83;;;;;;;;;;5128643;27;20628;-65
2021/06/06 09:14:45;;;;;;;1.90;1.80;;;;;;;;;;5129272;27;20278;-65
2021/06/06 09:17:13;;;;;;;2.03;1.93;;;;;;;;;;5133847;27;20656;-65
2021/06/06 09:19:45;;;;;;;1.80;1.70;;;;;;;;;;5128541;27;20283;-65
2021/06/06 09:22:27;;;;;;;2.70;1.90;;;;;;;;;;5128394;27;20216;-65
2021/06/06 09:24:55;;;;;;;3.67;1.97;;;;;;;;;;5135395;27;20223;-65
2021/06/06 09:27:25;;;;;;;1.70;1.60;;;;;;;;;;5138219;27;20693;-66
2021/06/06 09:29:59;;;;;;;1.60;1.50;;;;;;;;;;5137626;27;20235;-66
2021/06/06 09:32:28;;;;;;;2.23;2.03;;;;;;;;;;5119461;28;20237;-67
2021/06/06 09:34:56;;;;;;;1.63;1.53;;;;;;;;;;5137556;27;20244;-67
2021/06/06 09:37:27;;;;;;;2.70;2.00;;;;;;;;;;5137984;27;20291;-67
2021/06/06 09:40:00;;;;;;;3.13;1.57;;;;;;;;;;5125005;27;20691;-67
2021/06/06 09:42:30;;;;;;;1.80;1.70;;;;;;;;;;5137548;27;20216;-67
2021/06/06 09:45:02;;;;;;;3.90;1.77;;;;;;;;;;5137575;27;20631;-67
2021/06/06 09:47:30;;;;;;;1.83;1.70;;;;;;;;;;5137860;28;20206;-67
2021/06/06 09:50:02;;;;;;;1.90;1.80;;;;;;;;;;5123529;28;20288;-67
2021/06/06 09:52:41;;;;;;;4.33;1.60;;;;;;;;;;5137348;28;20699;-65
2021/06/06 09:55:13;;;;;;;1.10;1.10;;;;;;;;;;5137368;28;20294;-67
2021/06/06 09:57:42;;;;;;;1.70;1.60;;;;;;;;;;5137554;28;20234;-67
2021/06/06 10:00:12;;;;;;;1.70;1.60;;;;;;;;;;5137089;28;20323;-66
2021/06/06 10:02:40;;;;;;;2.20;2.00;;;;;;;;;;5137506;28;20228;-68
2021/06/06 10:05:11;;;;;;;1.70;1.60;;;;;;;;;;5136938;28;20580;-66
2021/06/06 10:07:43;;;;;;;2.27;2.00;;;;;;;;;;5135989;28;20202;-66
2021/06/06 10:10:12;;;;;;;2.00;1.80;;;;;;;;;;5126852;28;20280;-63
2021/06/06 10:12:43;;;;;;;3.33;1.83;;;;;;;;;;5124531;28;20216;-64
2021/06/06 10:15:16;;;;;;;1.97;1.70;;;;;;;;;;5135956;28;20192;-63
2021/06/06 10:17:46;;;;;;;2.10;1.30;;;;;;;;;;5138042;28;20259;-65
2021/06/06 10:20:18;;;;;;;2.00;1.80;;;;;;;;;;5137780;28;20234;-64
2021/06/06 10:22:49;;;;;;;2.83;1.67;;;;;;;;;;5137890;28;20258;-65
2021/06/06 10:25:20;;;;;;;2.50;1.83;;;;;;;;;;5140920;27;20219;-64
2021/06/06 10:27:51;;;;;;;2.40;1.70;;;;;;;;;;5132109;27;20208;-66
2021/06/06 10:30:22;;;;;;;2.83;1.60;;;;;;;;;;5141110;27;20299;-65
2021/06/06 10:32:54;;;;;;;2.43;2.00;;;;;;;;;;5141746;27;20253;-65
2021/06/06 10:35:23;;;;;;;3.30;1.73;;;;;;;;;;5140726;27;20675;-66
2021/06/06 10:37:53;;;;;;;1.90;1.80;;;;;;;;;;5141315;27;20320;-66
2021/06/06 10:40:23;;;;;;;1.80;1.50;;;;;;;;;;5127682;27;20206;-66
2021/06/06 10:42:52;;;;;;;1.30;1.30;;;;;;;;;;5141006;27;20224;-66
2021/06/06 10:45:22;;;;;;;2.13;1.50;;;;;;;;;;5129423;27;20678;-66
2021/06/06 10:47:51;;;;;;;4.43;1.50;;;;;;;;;;5141550;27;20204;-66
2021/06/06 10:50:30;;;;;;;1.60;1.50;;;;;;;;;;5141371;27;20206;-63
2021/06/06 10:53:18;;;;;;;1.87;1.77;;;;;;;;;;5141428;27;20234;-64
2021/06/06 10:55:50;;;;;;;1.67;1.57;;;;;;;;;;5136712;27;20280;-66
2021/06/06 10:58:19;;;;;;;2.60;1.90;;;;;;;;;;5141272;27;20259;-64
2021/06/06 11:00:55;;;;;;;1.60;1.50;;;;;;;;;;5141350;27;20208;-64
2021/06/06 11:03:24;;;;;;;2.23;1.90;;;;;;;;;;5141327;27;20200;-64
2021/06/06 11:05:53;;;;;;;1.50;1.40;;;;;;;;;;5139458;27;20220;-65
2021/06/06 11:08:39;;;;;;;1.70;1.60;;;;;;;;;;5140899;27;20282;-65
2021/06/06 11:11:13;;;;;;;1.53;1.20;;;;;;;;;;5140967;27;20203;-65
2021/06/06 11:13:41;;;;;;;2.47;1.23;;;;;;;;;;5133180;27;20204;-66
2021/06/06 11:16:21;;;;;;;1.70;1.60;;;;;;;;;;5140500;27;20249;-66
2021/06/06 11:18:50;;;;;;;1.80;1.70;;;;;;;;;;5140471;27;20207;-66
2021/06/06 11:21:29;;;;;;;1.83;1.20;;;;;;;;;;5139988;27;20228;-66
2021/06/06 11:23:59;;;;;;;1.03;1.00;;;;;;;;;;5140403;27;20200;-66
2021/06/06 11:26:36;;;;;;;1.33;1.23;;;;;;;;;;5140125;27;20216;-67
2021/06/06 11:29:07;;;;;;;1.93;1.70;;;;;;;;;;5132380;27;20238;-66
2021/06/06 11:31:36;;;;;;;0.90;0.90;;;;;;;;;;5135616;27;20226;-66
2021/06/06 11:34:05;;;;;;;1.97;1.47;;;;;;;;;;5133275;27;20232;-65
2021/06/06 11:36:34;;;;;;;2.33;1.80;;;;;;;;;;5138079;27;20204;-64
2021/06/06 11:39:17;;;;;;;1.10;1.10;;;;;;;;;;5139179;27;20200;-66
2021/06/06 11:41:46;;;;;;;2.03;1.10;;;;;;;;;;5139540;27;20291;-65
2021/06/06 11:44:27;;;;;;;2.27;1.00;;;;;;;;;;5139384;27;20286;-66
2021/06/06 11:46:56;;;;;;;1.07;1.07;;;;;;;;;;5139367;27;20702;-65
2021/06/06 11:49:34;;;;;;;1.33;1.23;;;;;;;;;;5138578;27;20203;-65
2021/06/06 11:52:05;;;;;;;1.70;1.20;;;;;;;;;;5139273;27;20228;-66
2021/06/06 11:54:34;;;;;;;1.20;1.20;;;;;;;;;;5140639;27;20214;-66
2021/06/06 11:57:06;;;;;;;1.60;1.50;;;;;;;;;;5138002;27;20207;-65
2021/06/06 11:59:35;;;;;;;1.63;1.03;;;;;;;;;;5136061;27;20586;-65
2021/06/06 12:02:09;;;;;;;1.17;0.93;;;;;;;;;;5138846;27;20303;-66
2021/06/06 12:04:38;;;;;;;4.50;1.30;;;;;;;;;;5129873;27;20196;-64
2021/06/06 12:07:11;;;;;;;1.00;1.00;;;;;;;;;;5139527;27;20228;-65
2021/06/06 12:09:42;;;;;;;1.97;1.37;;;;;;;;;;5139043;27;20200;-65
2021/06/06 12:12:12;;;;;;;1.70;1.20;;;;;;;;;;5132995;27;20265;-65
2021/06/06 12:14:40;;;;;;;1.80;1.70;;;;;;;;;;5139413;27;20203;-66
2021/06/06 12:17:19;;;;;;;1.20;1.10;;;;;;;;;;5139430;27;20391;-68
2021/06/06 12:19:52;;;;;;;1.27;1.17;;;;;;;;;;5138952;27;20200;-65
2021/06/06 12:22:38;;;;;;;1.10;1.10;;;;;;;;;;5135967;27;20231;-66
2021/06/06 12:25:28;;;;;;;1.10;0.90;;;;;;;;;;5139042;27;20256;-65
2021/06/06 12:27:59;;;;;;;1.53;1.40;;;;;;;;;;5132005;27;20231;-65
2021/06/06 12:30:29;;;;;;;1.57;1.43;;;;;;;;;;5132051;27;20236;-65
2021/06/06 12:33:06;;;;;;;2.00;1.10;;;;;;;;;;5133272;27;20231;-65
2021/06/06 12:36:14;;;;;;;1.73;1.63;;;;;;;;;;5131766;27;20199;-66
2021/06/06 12:38:44;;;;;;;1.73;1.50;;;;;;;;;;5133453;27;20570;-66
2021/06/06 12:41:13;;;;;;;1.40;1.27;;;;;;;;;;5138634;27;20233;-64
2021/06/06 12:43:43;;;;;;;3.23;1.40;;;;;;;;;;5138681;27;20211;-64
2021/06/06 12:46:11;;;;;;;1.73;1.17;;;;;;;;;;5138122;27;20220;-66
2021/06/06 12:48:54;;;;;;;1.10;1.10;;;;;;;;;;5138123;27;20204;-66
2021/06/06 12:51:25;;;;;;;1.23;1.23;;;;;;;;;;5138226;27;20269;-66
2021/06/06 12:53:53;;;;;;;1.53;1.20;;;;;;;;;;5138282;27;20204;-66
2021/06/06 12:56:27;;;;;;;2.40;1.40;;;;;;;;;;5138171;27;20228;-64
2021/06/06 12:59:03;;;;;;;1.10;1.10;;;;;;;;;;5138086;27;20245;-64
2021/06/06 13:01:31;;;;;;;0.80;0.80;;;;;;;;;;5138220;27;20245;-64
2021/06/06 13:04:09;;;;;;;3.27;1.37;;;;;;;;;;5137934;27;20247;-65
2021/06/06 13:06:39;;;;;;;1.10;1.10;;;;;;;;;;5133883;27;20216;-64
2021/06/06 13:09:26;;;;;;;1.70;1.13;;;;;;;;;;5137949;27;20196;-63
2021/06/06 13:11:56;;;;;;;3.00;1.50;;;;;;;;;;5131448;27;20212;-64
2021/06/06 13:14:33;;;;;;;1.60;1.50;;;;;;;;;;5136311;27;20200;-64
2021/06/06 13:17:02;;;;;;;1.60;1.50;;;;;;;;;;5138511;27;20288;-64
2021/06/06 13:19:31;;;;;;;2.20;1.30;;;;;;;;;;5138002;27;20363;-64
2021/06/06 13:22:06;;;;;;;1.47;1.33;;;;;;;;;;5138004;27;20224;-64
2021/06/06 13:24:35;;;;;;;1.43;1.40;;;;;;;;;;5138078;27;20198;-64
2021/06/06 13:27:06;;;;;;;1.60;1.50;;;;;;;;;;5137739;27;20261;-64
2021/06/06 13:29:36;;;;;;;1.90;1.10;;;;;;;;;;5138347;27;20240;-64
2021/06/06 13:32:09;;;;;;;1.40;1.40;;;;;;;;;;5137578;27;20226;-65
2021/06/06 13:34:37;;;;;;;2.73;1.30;;;;;;;;;;5137756;27;20204;-64
2021/06/06 13:37:05;;;;;;;1.00;1.00;;;;;;;;;;5138119;27;20200;-64
2021/06/06 13:39:33;;;;;;;1.00;1.00;;;;;;;;;;5138048;27;20207;-65
2021/06/06 13:42:01;;;;;;;1.00;1.00;;;;;;;;;;5137471;27;20223;-65
2021/06/06 13:44:30;;;;;;;1.30;1.20;;;;;;;;;;5137643;27;20214;-63
2021/06/06 13:46:58;;;;;;;1.90;0.97;;;;;;;;;;5137800;28;20229;-63
2021/06/06 13:49:26;;;;;;;1.73;1.00;;;;;;;;;;5138068;28;20208;-64
2021/06/06 13:51:54;;;;;;;1.63;1.30;;;;;;;;;;5137417;28;20240;-64
2021/06/06 13:54:22;;;;;;;2.10;1.03;;;;;;;;;;5137303;28;20203;-62
2021/06/06 13:56:51;;;;;;;1.20;1.20;;;;;;;;;;5133066;28;20196;-65
2021/06/06 13:59:18;;;;;;;1.50;1.40;;;;;;;;;;5131772;27;20209;-65
2021/06/06 14:01:48;;;;;;;1.30;1.20;;;;;;;;;;5137880;27;20214;-65
2021/06/06 14:04:16;;;;;;;1.37;1.27;;;;;;;;;;5133714;27;20680;-65
2021/06/06 14:06:44;;;;;;;1.37;1.13;;;;;;;;;;5136058;27;20265;-66
2021/06/06 14:09:12;;;;;;;1.27;1.17;;;;;;;;;;5134701;27;20203;-66
2021/06/06 14:11:41;;;;;;;1.00;1.00;;;;;;;;;;5137687;27;20307;-65
2021/06/06 14:14:10;;;;;;;2.97;1.27;;;;;;;;;;5134219;27;20198;-65
2021/06/06 14:16:38;;;;;;;1.00;1.00;;;;;;;;;;5136931;27;20205;-65
2021/06/06 14:19:09;;;;;;;1.43;1.30;;;;;;;;;;5139621;27;20204;-65
2021/06/06 14:21:37;;;;;;;1.23;1.23;;;;;;;;;;5138889;27;20223;-65
2021/06/06 14:24:05;;;;;;;1.87;1.40;;;;;;;;;;5139573;27;20207;-65
2021/06/06 14:26:34;;;;;;;1.00;1.00;;;;;;;;;;5137644;27;20340;-65
2021/06/06 14:29:03;;;;;;;0.80;0.80;;;;;;;;;;5132207;27;20972;-65
2021/06/06 14:31:30;;;;;;;3.43;1.07;;;;;;;;;;5139099;27;20226;-64
2021/06/06 14:33:58;;;;;;;2.97;1.40;;;;;;;;;;5136809;27;20252;-64
2021/06/06 14:36:28;;;;;;;1.07;0.97;;;;;;;;;;5138662;27;20202;-64
2021/06/06 14:38:56;;;;;;;0.73;0.73;;;;;;;;;;5139270;27;20205;-64
2021/06/06 14:41:25;;;;;;;1.10;0.80;;;;;;;;;;5139033;27;20261;-64
2021/06/06 14:43:52;;;;;;;0.87;0.80;;;;;;;;;;5133475;27;20200;-64
2021/06/06 14:46:21;;;;;;;0.73;0.70;;;;;;;;;;5138378;27;20303;-64
2021/06/06 14:48:49;;;;;;;0.80;0.80;;;;;;;;;;5138040;27;20194;-64
2021/06/06 14:51:17;;;;;;;0.90;0.90;;;;;;;;;;5137652;27;20230;-64
2021/06/06 14:53:46;;;;;;;1.13;1.10;;;;;;;;;;5140810;27;20214;-65
2021/06/06 14:56:14;;;;;;;1.03;0.93;;;;;;;;;;5139394;27;20659;-64
2021/06/06 14:58:42;;;;;;;2.17;0.90;;;;;;;;;;5140477;27;20285;-66